Kindakun Rocks, Canada
Current Conditions -  °F | °C
As of 11:00 AM on Friday 24 Oct 2014 (Local Time) from CYZP Reporting Station
Light Rain Light Rain  
Wind Chill: 44°   Ceiling: 5000
Heat Index: 48°   Visibility: 9mi
Dew Point: 45°   Wind: 9mph
Humidity: 87%   Direction: 150°SSE
Pressure: 29.82"   Gusts: NA
Location:  53.32°N, 132.75°W
Report Text: CYZP 241800Z AUTO 15008KT 9SM -RA BKN050 OVC075 09/07 A2982 RMK SLP096
Loading
Personal Weather Stations






























Interactive Weather Map
Tropical Storm Tracking
New forecast layout! Learn more

10-Day Weather Forecast

Advertisements
Track Severe Weather on mobile